createdAt,value
2019-04-21T00:00:44.708Z,10.57
2019-04-21T00:03:19.391Z,11.07
2019-04-21T00:06:04.605Z,10.90
2019-04-21T00:08:35.090Z,9.83
2019-04-21T00:11:09.731Z,7.80
2019-04-21T00:13:34.528Z,9.63
2019-04-21T00:15:58.961Z,10.13
2019-04-21T00:18:41.812Z,8.33
2019-04-21T00:21:11.017Z,9.63
2019-04-21T00:23:54.028Z,10.80
2019-04-21T00:26:24.036Z,7.70
2019-04-21T00:28:59.234Z,11.67
2019-04-21T00:31:24.640Z,8.40
2019-04-21T00:33:42.661Z,10.57
2019-04-21T00:36:14.885Z,7.10
2019-04-21T00:39:16.966Z,9.37
2019-04-21T00:41:29.456Z,9.73
2019-04-21T00:43:57.072Z,11.73
2019-04-21T00:46:31.179Z,9.83
2019-04-21T00:49:02.005Z,12.13
2019-04-21T00:51:49.777Z,9.83
2019-04-21T00:54:16.927Z,9.10
2019-04-21T00:56:45.587Z,9.97
2019-04-21T00:59:13.907Z,11.77
2019-04-21T01:01:43.698Z,9.10
2019-04-21T01:04:15.297Z,8.77
2019-04-21T01:06:48.029Z,8.23
2019-04-21T01:09:13.814Z,10.30
2019-04-21T01:11:50.538Z,14.30
2019-04-21T01:14:29.796Z,8.13
2019-04-21T01:16:57.385Z,9.97
2019-04-21T01:19:23.803Z,9.40
2019-04-21T01:21:35.101Z,13.90
2019-04-21T01:24:11.892Z,11.10
2019-04-21T01:26:48.475Z,9.90
2019-04-21T01:29:29.079Z,11.57
2019-04-21T01:32:08.502Z,9.20
2019-04-21T01:34:33.026Z,10.10
2019-04-21T01:36:58.650Z,12.77
2019-04-21T01:39:42.810Z,12.03
2019-04-21T01:42:08.881Z,9.83
2019-04-21T01:44:42.460Z,8.50
2019-04-21T01:47:10.274Z,9.67
2019-04-21T01:49:34.475Z,11.43
2019-04-21T01:55:16.395Z,14.83
2019-04-21T01:58:04.463Z,9.87
2019-04-21T02:00:50.174Z,11.40
2019-04-21T02:03:48.388Z,9.73
2019-04-21T02:06:04.460Z,8.50
2019-04-21T02:08:27.216Z,9.77
2019-04-21T02:11:07.628Z,9.67
2019-04-21T02:13:27.649Z,12.67
2019-04-21T02:16:06.549Z,10.77
2019-04-21T02:18:34.957Z,9.47
2019-04-21T02:20:55.413Z,10.97
2019-04-21T02:23:46.781Z,11.13
2019-04-21T02:26:21.267Z,8.83
2019-04-21T02:28:50.014Z,9.23
2019-04-21T02:31:30.551Z,7.70
2019-04-21T02:39:08.313Z,9.73
2019-04-21T02:41:34.755Z,10.83
2019-04-21T02:44:08.340Z,11.97
2019-04-21T02:49:06.262Z,10.87
2019-04-21T02:59:17.134Z,10.07
2019-04-21T03:02:24.698Z,11.70
2019-04-21T03:04:53.273Z,10.03
2019-04-21T03:07:38.064Z,9.47
2019-04-21T03:09:53.114Z,9.20
2019-04-21T03:12:24.560Z,11.07
2019-04-21T03:15:29.197Z,10.67
2019-04-21T03:17:32.713Z,10.67
2019-04-21T03:20:00.828Z,11.77
2019-04-21T03:27:52.784Z,10.53
2019-04-21T03:30:10.931Z,12.23
2019-04-21T03:37:36.777Z,10.73
2019-04-21T03:42:53.042Z,10.17
2019-04-21T03:45:25.150Z,9.00
2019-04-21T03:47:43.153Z,14.20
2019-04-21T03:50:23.882Z,12.47
2019-04-21T03:52:58.425Z,14.03
2019-04-21T03:58:17.828Z,11.53
2019-04-21T04:01:04.174Z,9.80
2019-04-21T04:11:49.587Z,10.40
2019-04-21T04:14:03.819Z,10.80
2019-04-21T04:16:37.207Z,10.50
2019-04-21T04:19:01.647Z,10.40
2019-04-21T04:21:42.034Z,10.27
2019-04-21T04:24:04.339Z,10.77
2019-04-21T04:34:12.771Z,11.50
2019-04-21T04:39:43.020Z,9.57
2019-04-21T04:42:27.166Z,9.80
2019-04-21T04:44:55.068Z,7.57
2019-04-21T04:47:18.418Z,11.67
2019-04-21T04:52:28.559Z,9.27
2019-04-21T04:54:52.906Z,8.87
2019-04-21T05:00:03.449Z,10.83
2019-04-21T05:02:27.807Z,14.87
2019-04-21T05:05:07.334Z,11.90
2019-04-21T05:07:33.479Z,10.97
2019-04-21T05:15:05.833Z,13.10
2019-04-21T05:20:10.450Z,11.30
2019-04-21T05:22:28.015Z,15.50
2019-04-21T05:24:53.773Z,11.50
2019-04-21T05:27:52.589Z,11.83
2019-04-21T05:30:49.004Z,13.30
2019-04-21T05:33:34.608Z,14.30
2019-04-21T05:36:09.413Z,10.30
2019-04-21T05:38:57.017Z,9.37
2019-04-21T05:41:23.207Z,11.83
2019-04-21T05:44:04.824Z,10.10
2019-04-21T05:46:39.793Z,9.00
2019-04-21T05:49:10.856Z,8.20
2019-04-21T05:51:57.058Z,14.43
2019-04-21T05:54:38.689Z,9.30
2019-04-21T05:56:59.908Z,9.33
2019-04-21T05:59:40.132Z,9.00
2019-04-21T06:02:13.602Z,8.80
2019-04-21T06:05:02.397Z,12.63
2019-04-21T06:07:18.848Z,9.93
2019-04-21T06:09:53.807Z,9.07
2019-04-21T06:12:15.585Z,11.13
2019-04-21T06:14:52.126Z,8.50
2019-04-21T06:17:23.736Z,8.53
2019-04-21T06:22:22.429Z,7.93
2019-04-21T06:25:21.673Z,10.37
2019-04-21T06:27:27.525Z,8.13
2019-04-21T06:35:20.760Z,8.67
2019-04-21T06:42:42.978Z,8.70
2019-04-21T06:45:12.892Z,8.83
2019-04-21T06:47:47.363Z,7.57
2019-04-21T06:50:20.641Z,7.10
2019-04-21T06:55:22.839Z,7.77
2019-04-21T06:57:51.900Z,7.63
2019-04-21T07:00:19.523Z,8.07
2019-04-21T07:03:04.700Z,12.63
2019-04-21T07:05:30.654Z,8.27
2019-04-21T07:08:16.987Z,6.53
2019-04-21T07:10:26.061Z,9.10
2019-04-21T07:13:00.364Z,8.07
2019-04-21T07:15:30.539Z,11.20
2019-04-21T07:18:04.630Z,7.53
2019-04-21T07:20:30.968Z,9.67
2019-04-21T07:26:36.782Z,8.07
2019-04-21T07:29:14.456Z,11.07
2019-04-21T07:31:52.130Z,7.53
2019-04-21T07:34:19.716Z,8.60
2019-04-21T07:36:51.843Z,9.67
2019-04-21T07:39:12.061Z,8.10
2019-04-21T07:41:42.509Z,7.30
2019-04-21T07:44:04.541Z,9.77
2019-04-21T07:46:38.610Z,6.60
2019-04-21T07:49:41.147Z,7.40
2019-04-21T07:52:34.932Z,6.50
2019-04-21T07:55:12.921Z,6.97
2019-04-21T07:57:32.014Z,7.53
2019-04-21T08:02:38.507Z,7.27
2019-04-21T08:05:13.095Z,7.90
2019-04-21T08:07:48.195Z,6.30
2019-04-21T08:10:14.475Z,8.73
2019-04-21T08:12:38.550Z,6.20
2019-04-21T08:15:31.705Z,7.63
2019-04-21T08:17:41.382Z,5.87
2019-04-21T08:20:15.616Z,8.73
2019-04-21T08:25:15.137Z,8.40
2019-04-21T08:30:20.997Z,8.27
2019-04-21T08:35:51.036Z,5.80
2019-04-21T08:37:48.511Z,7.73
2019-04-21T08:40:31.632Z,10.97
2019-04-21T08:42:55.234Z,9.23
2019-04-21T08:45:27.908Z,6.93
2019-04-21T08:47:58.200Z,7.43
2019-04-21T08:50:25.393Z,6.47
2019-04-21T08:53:04.058Z,9.30
2019-04-21T08:55:49.323Z,9.63
2019-04-21T08:58:30.960Z,7.50
2019-04-21T09:01:08.887Z,7.33
2019-04-21T09:03:49.501Z,6.60
2019-04-21T09:08:55.189Z,6.03
2019-04-21T09:11:22.744Z,9.87
2019-04-21T09:13:54.828Z,6.97
2019-04-21T09:16:20.830Z,6.27
2019-04-21T09:18:50.272Z,6.80
2019-04-21T09:21:26.515Z,6.50
2019-04-21T09:24:00.613Z,6.70
2019-04-21T09:26:31.003Z,8.67
2019-04-21T09:28:51.920Z,6.87
2019-04-21T09:31:19.254Z,8.67
2019-04-21T09:33:48.996Z,6.03
2019-04-21T09:36:21.224Z,9.50
2019-04-21T09:38:56.914Z,6.77
2019-04-21T09:41:22.112Z,6.33
2019-04-21T09:43:53.658Z,7.03
2019-04-21T09:46:21.397Z,7.13
2019-04-21T09:48:57.195Z,10.13
2019-04-21T09:51:22.012Z,10.77
2019-04-21T09:53:57.235Z,7.60
2019-04-21T09:56:31.468Z,7.67
2019-04-21T09:59:03.820Z,6.43
2019-04-21T10:01:29.885Z,6.53
2019-04-21T10:03:59.842Z,8.47
2019-04-21T10:06:28.446Z,8.93
2019-04-21T10:09:04.070Z,8.40
2019-04-21T10:11:29.067Z,6.77
2019-04-21T10:13:58.859Z,16.60
2019-04-21T10:16:45.929Z,6.53
2019-04-21T10:19:15.386Z,6.60
2019-04-21T10:21:44.980Z,6.53
2019-04-21T10:24:15.850Z,7.70
2019-04-21T10:26:45.420Z,6.83
2019-04-21T10:29:22.092Z,6.57
2019-04-21T10:31:46.799Z,7.37
2019-04-21T10:34:17.280Z,10.07
2019-04-21T10:36:47.048Z,7.03
2019-04-21T10:39:17.703Z,12.50
2019-04-21T10:41:47.689Z,9.57
2019-04-21T10:44:17.174Z,9.23
2019-04-21T10:46:48.404Z,7.43
2019-04-21T10:49:18.888Z,8.47
2019-04-21T10:51:48.921Z,6.57
2019-04-21T10:54:19.982Z,7.60
2019-04-21T10:56:50.699Z,10.63
2019-04-21T10:59:20.522Z,7.23
2019-04-21T11:01:50.472Z,8.23
2019-04-21T11:04:27.817Z,14.10
2019-04-21T11:06:59.407Z,6.97
2019-04-21T11:09:26.355Z,6.97
2019-04-21T11:11:57.761Z,10.67
2019-04-21T11:14:27.452Z,7.33
2019-04-21T11:16:58.467Z,7.83
2019-04-21T11:19:28.622Z,7.13
2019-04-21T11:21:58.796Z,10.00
2019-04-21T11:24:29.186Z,7.00
2019-04-21T11:27:00.125Z,7.60
2019-04-21T11:29:30.972Z,7.17
2019-04-21T11:32:00.999Z,6.60
2019-04-21T11:34:35.179Z,7.13
2019-04-21T11:37:06.431Z,7.53
2019-04-21T11:39:45.821Z,7.10
2019-04-21T11:42:17.555Z,6.87
2019-04-21T11:44:47.364Z,12.83
2019-04-21T11:47:24.623Z,7.17
2019-04-21T11:49:54.933Z,8.50
2019-04-21T11:52:25.066Z,10.17
2019-04-21T11:54:55.066Z,6.80
2019-04-21T11:57:28.704Z,6.43
2019-04-21T11:59:57.510Z,5.93
2019-04-21T12:02:27.790Z,8.40
2019-04-21T12:04:57.576Z,7.20
2019-04-21T12:07:27.267Z,6.43
2019-04-21T12:09:57.612Z,7.77
2019-04-21T12:12:27.484Z,5.57
2019-04-21T12:14:57.678Z,6.43
2019-04-21T12:17:27.964Z,7.70
2019-04-21T12:19:58.718Z,6.27
2019-04-21T12:22:31.886Z,8.10
2019-04-21T12:25:00.773Z,6.80
2019-04-21T12:27:31.884Z,8.23
2019-04-21T12:30:05.980Z,6.13
2019-04-21T12:32:58.108Z,5.80
2019-04-21T12:35:28.098Z,6.27
2019-04-21T12:37:58.505Z,7.13
2019-04-21T12:40:28.448Z,6.77
2019-04-21T12:42:58.807Z,9.70
2019-04-21T12:45:28.439Z,6.43
2019-04-21T12:47:57.964Z,10.97
2019-04-21T12:50:27.813Z,7.23
2019-04-21T12:52:57.841Z,7.77
2019-04-21T12:55:31.605Z,8.17
2019-04-21T12:57:59.428Z,5.60
2019-04-21T13:00:29.062Z,6.40
2019-04-21T13:02:58.522Z,8.13
2019-04-21T13:05:29.518Z,6.30
2019-04-21T13:07:59.562Z,6.47
2019-04-21T13:10:31.232Z,7.43
2019-04-21T13:13:01.701Z,7.63
2019-04-21T13:15:31.460Z,5.67
2019-04-21T13:18:00.994Z,6.23
2019-04-21T13:20:30.600Z,6.43
2019-04-21T13:23:00.198Z,7.90
2019-04-21T13:25:29.827Z,6.87
2019-04-21T13:28:00.748Z,6.10
2019-04-21T13:30:30.623Z,7.47
2019-04-21T13:33:00.856Z,9.60
2019-04-21T13:35:30.966Z,8.30
2019-04-21T13:38:00.621Z,8.70
2019-04-21T13:41:10.727Z,6.23
2019-04-21T13:43:27.327Z,6.20
2019-04-21T13:45:57.514Z,6.23
2019-04-21T13:48:28.508Z,7.93
2019-04-21T13:50:59.432Z,6.57
2019-04-21T13:53:29.096Z,9.70
2019-04-21T13:55:58.742Z,7.20
2019-04-21T13:58:28.618Z,6.00
2019-04-21T14:00:58.166Z,6.93
2019-04-21T14:03:29.138Z,11.53
2019-04-21T14:06:00.001Z,5.80
2019-04-21T14:08:29.596Z,7.03
2019-04-21T14:10:59.810Z,7.47
2019-04-21T14:13:32.264Z,6.30
2019-04-21T14:16:02.155Z,5.87
2019-04-21T14:18:34.229Z,7.63
2019-04-21T14:21:04.977Z,7.17
2019-04-21T14:23:40.796Z,6.10
2019-04-21T14:26:06.469Z,7.57
2019-04-21T14:28:36.707Z,8.07
2019-04-21T14:31:06.319Z,6.47
2019-04-21T14:33:36.222Z,5.93
2019-04-21T14:36:05.911Z,6.23
2019-04-21T14:38:36.617Z,7.70
2019-04-21T14:41:06.270Z,8.83
2019-04-21T14:43:36.184Z,5.50
2019-04-21T14:46:13.194Z,5.83
2019-04-21T14:49:05.539Z,5.47
2019-04-21T14:51:52.774Z,9.07
2019-04-21T14:54:43.082Z,6.97
2019-04-21T14:57:13.602Z,7.80
2019-04-21T14:59:43.066Z,6.83
2019-04-21T15:02:13.890Z,5.13
2019-04-21T15:04:45.839Z,5.53
2019-04-21T15:07:15.363Z,6.83
2019-04-21T15:09:46.356Z,5.57
2019-04-21T15:12:16.277Z,5.33
2019-04-21T15:14:45.882Z,5.53
2019-04-21T15:17:18.810Z,5.10
2019-04-21T15:19:52.241Z,5.03
2019-04-21T15:22:18.543Z,6.47
2019-04-21T15:24:48.230Z,7.03
2019-04-21T15:27:18.918Z,7.67
2019-04-21T15:29:48.790Z,5.97
2019-04-21T15:32:18.804Z,6.60
2019-04-21T15:34:49.909Z,5.40
2019-04-21T15:37:19.945Z,6.17
2019-04-21T15:39:50.770Z,4.83
2019-04-21T15:42:20.927Z,5.33
2019-04-21T15:44:50.627Z,6.43
2019-04-21T15:47:20.097Z,4.73
2019-04-21T15:50:02.777Z,7.43
2019-04-21T15:52:28.135Z,6.67
2019-04-21T15:55:05.472Z,5.17
2019-04-21T15:57:54.427Z,6.57
2019-04-21T16:00:36.781Z,6.20
2019-04-21T16:03:06.815Z,4.47
2019-04-21T16:05:37.100Z,5.30
2019-04-21T16:08:07.831Z,4.77
2019-04-21T16:10:45.286Z,5.10
2019-04-21T16:13:09.798Z,5.57
2019-04-21T16:15:40.758Z,9.27
2019-04-21T16:18:10.389Z,5.53
2019-04-21T16:20:39.964Z,6.07
2019-04-21T16:23:10.707Z,8.70
2019-04-21T16:25:41.154Z,5.33
2019-04-21T16:28:11.105Z,5.13
2019-04-21T16:30:40.614Z,4.50
2019-04-21T16:33:10.269Z,6.80
2019-04-21T16:35:39.986Z,5.63
2019-04-21T16:38:09.599Z,6.70
2019-04-21T16:40:48.184Z,6.10
2019-04-21T16:43:10.481Z,6.97
2019-04-21T16:45:41.105Z,4.67
2019-04-21T16:48:10.607Z,6.03
2019-04-21T16:50:41.502Z,6.03
2019-04-21T16:53:17.535Z,5.50
2019-04-21T16:55:51.198Z,5.80
2019-04-21T16:58:42.920Z,4.73
2019-04-21T17:01:18.200Z,6.20
2019-04-21T17:03:48.500Z,5.83
2019-04-21T17:06:19.363Z,4.90
2019-04-21T17:08:50.436Z,5.67
2019-04-21T17:11:26.206Z,5.23
2019-04-21T17:13:51.983Z,6.37
2019-04-21T17:16:57.587Z,5.83
2019-04-21T17:19:02.863Z,5.33
2019-04-21T17:21:28.121Z,5.67
2019-04-21T17:23:58.896Z,9.07
2019-04-21T17:26:29.024Z,5.23
2019-04-21T17:28:58.816Z,5.67
2019-04-21T17:31:28.787Z,5.33
2019-04-21T17:34:06.306Z,4.90
2019-04-21T17:36:29.749Z,4.40
2019-04-21T17:39:00.090Z,4.73
2019-04-21T17:41:39.324Z,5.33
2019-04-21T17:44:04.464Z,7.30
2019-04-21T17:46:45.568Z,5.17
2019-04-21T17:49:07.004Z,5.37
2019-04-21T17:51:58.620Z,7.20
2019-04-21T17:54:35.698Z,4.43
2019-04-21T17:57:24.655Z,7.07
2019-04-21T18:02:29.837Z,6.13
2019-04-21T18:05:02.415Z,5.07
2019-04-21T18:07:31.617Z,5.53
2019-04-21T18:10:13.622Z,7.33
2019-04-21T18:12:33.380Z,6.07
2019-04-21T18:15:03.983Z,5.90
2019-04-21T18:17:20.750Z,9.30
2019-04-21T18:19:51.714Z,9.27
2019-04-21T18:22:45.555Z,5.70
2019-04-21T18:25:28.110Z,6.20
2019-04-21T18:27:48.585Z,10.70
2019-04-21T18:30:40.761Z,8.50
2019-04-21T18:33:12.995Z,6.13
2019-04-21T18:36:00.673Z,6.20
2019-04-21T18:39:18.347Z,9.23
2019-04-21T18:41:42.820Z,6.73
2019-04-21T18:44:43.229Z,7.40
2019-04-21T18:47:09.707Z,11.97
2019-04-21T18:49:40.097Z,6.20
2019-04-21T18:52:27.106Z,4.87
2019-04-21T18:55:01.526Z,6.70
2019-04-21T18:57:32.450Z,7.97
2019-04-21T18:59:51.449Z,7.77
2019-04-21T19:02:22.476Z,7.67
2019-04-21T19:04:54.378Z,7.93
2019-04-21T19:07:37.525Z,10.00
2019-04-21T19:10:22.234Z,7.23
2019-04-21T19:13:15.969Z,11.77
2019-04-21T19:15:17.859Z,10.43
2019-04-21T19:18:14.960Z,7.90
2019-04-21T19:20:25.965Z,7.77
2019-04-21T19:22:48.711Z,12.60
2019-04-21T19:25:20.834Z,11.20
2019-04-21T19:27:53.260Z,10.17
2019-04-21T19:30:37.989Z,8.53
2019-04-21T19:32:58.402Z,10.17
2019-04-21T19:35:11.622Z,7.37
2019-04-21T19:37:49.842Z,8.57
2019-04-21T19:40:31.076Z,10.90
2019-04-21T19:42:57.074Z,10.93
2019-04-21T19:45:32.203Z,9.57
2019-04-21T19:48:08.052Z,6.87
2019-04-21T19:50:41.972Z,7.93
2019-04-21T19:53:02.497Z,7.33
2019-04-21T19:55:22.438Z,7.70
2019-04-21T19:57:52.701Z,6.53
2019-04-21T20:00:22.566Z,12.30
2019-04-21T20:02:52.333Z,10.03
2019-04-21T20:05:32.708Z,9.47
2019-04-21T20:08:12.890Z,10.10
2019-04-21T20:10:43.920Z,9.90
2019-04-21T20:13:14.471Z,13.87
2019-04-21T20:15:46.522Z,9.87
2019-04-21T20:18:07.081Z,10.70
2019-04-21T20:20:29.144Z,8.23
2019-04-21T20:22:59.395Z,10.17
2019-04-21T20:25:30.843Z,13.50
2019-04-21T20:28:07.265Z,9.60
2019-04-21T20:30:47.211Z,14.07
2019-04-21T20:36:01.404Z,8.57
2019-04-21T20:38:24.809Z,10.57
2019-04-21T20:40:56.666Z,7.43
2019-04-21T20:43:38.695Z,9.43
2019-04-21T20:46:02.484Z,10.03
2019-04-21T20:48:34.500Z,12.10
2019-04-21T20:51:09.239Z,9.00
2019-04-21T20:53:40.952Z,9.87
2019-04-21T20:56:08.754Z,14.10
2019-04-21T20:58:49.258Z,10.33
2019-04-21T21:03:48.956Z,8.53
2019-04-21T21:06:21.875Z,7.73
2019-04-21T21:08:49.973Z,7.90
2019-04-21T21:11:24.268Z,9.07
2019-04-21T21:13:58.914Z,10.70
2019-04-21T21:16:29.119Z,9.53
2019-04-21T21:21:24.296Z,11.40
2019-04-21T21:24:00.324Z,9.23
2019-04-21T21:26:31.369Z,12.80
2019-04-21T21:28:54.853Z,13.93
2019-04-21T21:31:37.113Z,15.67
2019-04-21T21:34:11.934Z,14.97
2019-04-21T21:36:36.480Z,15.37
2019-04-21T21:39:06.033Z,17.90
2019-04-21T21:41:29.874Z,13.57
2019-04-21T21:44:03.985Z,11.47
2019-04-21T21:46:42.728Z,12.60
2019-04-21T21:49:06.324Z,17.43
2019-04-21T21:51:41.224Z,15.23
2019-04-21T21:53:59.016Z,11.40
2019-04-21T21:56:28.911Z,14.60
2019-04-21T21:59:01.293Z,12.97
2019-04-21T22:01:37.924Z,11.43
2019-04-21T22:04:09.277Z,15.67
2019-04-21T22:06:42.070Z,12.30
2019-04-21T22:09:04.078Z,11.93
2019-04-21T22:11:33.889Z,15.43
2019-04-21T22:14:08.131Z,13.60
2019-04-21T22:16:45.497Z,17.30
2019-04-21T22:19:21.869Z,13.93
2019-04-21T22:21:53.589Z,12.70
2019-04-21T22:24:20.341Z,12.30
2019-04-21T22:26:40.980Z,17.97
2019-04-21T22:29:11.743Z,15.90
2019-04-21T22:31:43.323Z,13.47
2019-04-21T22:34:14.915Z,10.90
2019-04-21T22:36:53.406Z,13.30
2019-04-21T22:39:36.260Z,13.77
2019-04-21T22:41:49.242Z,13.83
2019-04-21T22:44:18.842Z,14.33
2019-04-21T22:46:59.842Z,16.00
2019-04-21T22:49:21.864Z,15.20
2019-04-21T22:51:52.150Z,11.83
2019-04-21T22:54:29.651Z,11.10
2019-04-21T22:57:02.583Z,13.00
2019-04-21T22:59:26.746Z,13.67
2019-04-21T23:01:57.641Z,12.43
2019-04-21T23:04:38.080Z,11.00
2019-04-21T23:07:02.938Z,12.73
2019-04-21T23:09:30.820Z,12.30
2019-04-21T23:12:01.902Z,14.83
2019-04-21T23:14:41.681Z,9.80
2019-04-21T23:17:26.718Z,10.53
2019-04-21T23:19:45.993Z,14.23
2019-04-21T23:22:23.204Z,12.67
2019-04-21T23:24:57.326Z,12.23
2019-04-21T23:27:19.981Z,11.27
2019-04-21T23:30:03.400Z,10.67
2019-04-21T23:32:23.860Z,11.63
2019-04-21T23:34:43.708Z,11.57
2019-04-21T23:37:18.306Z,11.60
2019-04-21T23:39:45.443Z,11.63
2019-04-21T23:42:23.711Z,10.53
2019-04-21T23:44:52.905Z,10.13
2019-04-21T23:47:39.597Z,9.80
2019-04-21T23:50:02.742Z,9.33
2019-04-21T23:52:25.602Z,10.17
2019-04-21T23:54:55.673Z,10.47
2019-04-21T23:57:32.564Z,11.77
2019-04-21T23:59:58.866Z,10.40
